createdAt,value
2018-06-04T00:02:17.060Z,80.87
2018-06-04T00:04:45.324Z,74.07
2018-06-04T00:07:13.608Z,75.43
2018-06-04T00:09:41.861Z,67.43
2018-06-04T00:12:10.194Z,67.07
2018-06-04T00:14:38.451Z,55.00
2018-06-04T00:17:06.739Z,55.63
2018-06-04T00:19:35.043Z,58.73
2018-06-04T00:22:03.605Z,54.13
2018-06-04T00:24:32.894Z,55.17
2018-06-04T00:27:01.150Z,58.17
2018-06-04T00:29:29.238Z,54.83
2018-06-04T00:31:57.537Z,58.23
2018-06-04T00:34:25.815Z,59.37
2018-06-04T00:36:54.236Z,53.97
2018-06-04T00:39:22.513Z,51.00
2018-06-04T00:41:50.623Z,59.90
2018-06-04T00:44:19.084Z,60.97
2018-06-04T00:46:47.377Z,65.60
2018-06-04T00:49:16.792Z,62.23
2018-06-04T00:51:45.040Z,56.87
2018-06-04T00:54:13.302Z,49.70
2018-06-04T00:56:41.770Z,46.90
2018-06-04T00:59:10.002Z,45.10
2018-06-04T01:01:38.273Z,42.13
2018-06-04T01:04:06.531Z,43.10
2018-06-04T01:06:34.820Z,41.27
2018-06-04T01:09:03.122Z,48.57
2018-06-04T01:11:31.560Z,47.43
2018-06-04T01:13:59.924Z,44.83
2018-06-04T01:16:28.218Z,43.20
2018-06-04T01:18:56.470Z,38.97
2018-06-04T01:21:24.734Z,39.20
2018-06-04T01:23:52.993Z,40.00
2018-06-04T01:26:21.251Z,40.90
2018-06-04T01:28:49.503Z,42.60
2018-06-04T01:31:17.950Z,41.03
2018-06-04T01:33:46.226Z,43.60
2018-06-04T01:36:14.484Z,44.10
2018-06-04T01:38:42.746Z,42.83
2018-06-04T01:41:11.008Z,39.60
2018-06-04T01:43:39.299Z,36.67
2018-06-04T01:46:07.557Z,39.03
2018-06-04T01:48:36.148Z,41.40
2018-06-04T01:51:04.391Z,40.10
2018-06-04T01:53:32.728Z,41.20
2018-06-04T01:56:00.995Z,42.13
2018-06-04T01:58:29.250Z,40.53
2018-06-04T02:00:57.519Z,41.23
2018-06-04T02:03:25.772Z,47.47
2018-06-04T02:05:54.032Z,45.50
2018-06-04T02:08:22.360Z,40.60
2018-06-04T02:10:50.625Z,44.90
2018-06-04T02:13:18.911Z,43.37
2018-06-04T02:15:47.180Z,48.07
2018-06-04T02:18:15.462Z,46.97
2018-06-04T02:20:43.724Z,43.73
2018-06-04T02:23:12.056Z,45.40
2018-06-04T02:25:40.469Z,50.13
2018-06-04T02:28:08.723Z,49.83
2018-06-04T02:30:36.981Z,48.53
2018-06-04T02:33:05.580Z,47.30
2018-06-04T02:35:33.839Z,46.33
2018-06-04T02:38:02.132Z,48.93
2018-06-04T02:40:30.388Z,50.53
2018-06-04T02:42:58.663Z,52.00
2018-06-04T02:45:26.938Z,52.67
2018-06-04T02:47:55.231Z,50.90
2018-06-04T02:50:23.495Z,54.47
2018-06-04T02:52:51.781Z,50.50
2018-06-04T02:55:20.051Z,52.90
2018-06-04T02:57:48.332Z,55.13
2018-06-04T03:00:16.611Z,55.57
2018-06-04T03:02:45.055Z,53.83
2018-06-04T03:05:13.407Z,55.33
2018-06-04T03:07:41.675Z,51.57
2018-06-04T03:10:09.933Z,55.30
2018-06-04T03:12:38.385Z,54.10
2018-06-04T03:15:06.996Z,51.00
2018-06-04T03:17:35.298Z,47.37
2018-06-04T03:20:03.582Z,49.57
2018-06-04T03:22:31.988Z,45.83
2018-06-04T03:25:00.260Z,46.90
2018-06-04T03:27:28.503Z,52.37
2018-06-04T03:29:56.751Z,43.87
2018-06-04T03:32:25.024Z,41.70
2018-06-04T03:34:53.301Z,42.10
2018-06-04T03:37:21.759Z,41.80
2018-06-04T03:39:50.038Z,42.50
2018-06-04T03:42:18.366Z,43.83
2018-06-04T03:44:46.654Z,41.60
2018-06-04T03:47:15.137Z,40.73
2018-06-04T03:49:43.383Z,38.90
2018-06-04T03:52:11.660Z,41.90
2018-06-04T03:54:39.922Z,39.90
2018-06-04T03:57:08.173Z,41.27
2018-06-04T03:59:36.515Z,38.83
2018-06-04T04:02:04.767Z,38.63
2018-06-04T04:04:33.034Z,43.17
2018-06-04T04:07:01.262Z,42.10
2018-06-04T04:09:29.541Z,38.20
2018-06-04T04:11:57.798Z,37.80
2018-06-04T04:14:26.088Z,37.23
2018-06-04T04:16:54.344Z,34.80
2018-06-04T04:19:22.664Z,31.43
2018-06-04T04:21:51.099Z,34.07
2018-06-04T04:24:19.370Z,32.43
2018-06-04T04:26:47.685Z,31.80
2018-06-04T04:29:15.941Z,31.03
2018-06-04T04:31:44.224Z,31.17
2018-06-04T04:34:12.489Z,29.10
2018-06-04T04:36:40.760Z,29.27
2018-06-04T04:39:09.359Z,31.17
2018-06-04T04:41:37.650Z,29.53
2018-06-04T04:44:05.925Z,29.60
2018-06-04T04:46:34.213Z,28.83
2018-06-04T04:49:02.498Z,28.47
2018-06-04T04:51:30.768Z,25.87
2018-06-04T04:53:59.036Z,25.10
2018-06-04T04:56:27.311Z,23.40
2018-06-04T04:58:55.580Z,25.97
2018-06-04T05:01:23.826Z,26.73
2018-06-04T05:03:52.106Z,24.27
2018-06-04T05:06:20.363Z,27.03
2018-06-04T05:08:48.654Z,27.17
2018-06-04T05:11:17.280Z,24.97
2018-06-04T05:13:45.553Z,25.83
2018-06-04T05:16:13.977Z,23.67
2018-06-04T05:18:42.226Z,25.40
2018-06-04T05:21:10.545Z,23.40
2018-06-04T05:23:38.831Z,21.53
2018-06-04T05:26:07.102Z,21.83
2018-06-04T05:28:35.236Z,21.37
2018-06-04T05:31:03.550Z,21.27
2018-06-04T05:33:31.852Z,21.37
2018-06-04T05:36:00.138Z,21.33
2018-06-04T05:38:28.405Z,19.20
2018-06-04T05:40:56.698Z,20.37
2018-06-04T05:43:24.997Z,19.92
2018-06-04T05:45:53.248Z,22.27
2018-06-04T05:48:21.530Z,21.60
2018-06-04T05:50:50.600Z,19.40
2018-06-04T05:53:19.461Z,21.23
2018-06-04T05:55:48.341Z,20.88
2018-06-04T05:58:16.657Z,18.83
2018-06-04T06:00:45.693Z,21.37
2018-06-04T06:03:17.886Z,19.70
2018-06-04T06:05:46.749Z,21.10
2018-06-04T06:08:15.677Z,21.33
2018-06-04T06:10:44.585Z,18.67
2018-06-04T06:13:13.437Z,20.45
2018-06-04T06:15:42.598Z,19.15
2018-06-04T06:18:11.432Z,21.35
2018-06-04T06:20:42.908Z,22.42
2018-06-04T06:23:11.400Z,20.23
2018-06-04T06:25:40.304Z,19.23
2018-06-04T06:28:09.154Z,19.42
2018-06-04T06:30:41.247Z,20.12
2018-06-04T06:33:09.553Z,21.40
2018-06-04T06:35:38.447Z,21.05
2018-06-04T06:38:07.291Z,20.05
2018-06-04T06:40:36.176Z,22.73
2018-06-04T06:43:05.077Z,20.70
2018-06-04T06:45:33.976Z,18.10
2018-06-04T06:48:02.843Z,20.08
2018-06-04T06:50:31.709Z,18.73
2018-06-04T06:53:00.767Z,18.80
2018-06-04T06:55:29.596Z,18.90
2018-06-04T06:57:58.468Z,17.40
2018-06-04T07:00:27.333Z,17.10
2018-06-04T07:02:56.241Z,17.85
2018-06-04T07:05:25.287Z,16.73
2018-06-04T07:07:54.129Z,17.10
2018-06-04T07:10:23.101Z,15.13
2018-06-04T07:12:51.976Z,16.42
2018-06-04T07:15:20.826Z,18.23
2018-06-04T07:17:49.883Z,18.75
2018-06-04T07:20:19.079Z,18.17
2018-06-04T07:22:47.937Z,17.82
2018-06-04T07:25:16.618Z,16.82
2018-06-04T07:27:45.501Z,19.62
2018-06-04T07:30:14.578Z,19.45
2018-06-04T07:32:42.864Z,20.07
2018-06-04T07:35:11.721Z,21.07
2018-06-04T07:37:40.797Z,18.45
2018-06-04T07:40:09.690Z,19.45
2018-06-04T07:42:38.520Z,18.50
2018-06-04T07:45:07.398Z,20.37
2018-06-04T07:47:36.315Z,18.52
2018-06-04T07:50:05.227Z,18.77
2018-06-04T07:52:34.076Z,19.92
2018-06-04T07:55:03.659Z,19.98
2018-06-04T07:57:32.523Z,22.95
2018-06-04T08:00:01.449Z,21.90
2018-06-04T08:02:30.316Z,21.05
2018-06-04T08:04:59.208Z,20.55
2018-06-04T08:07:28.199Z,21.62
2018-06-04T08:09:57.131Z,21.73
2018-06-04T08:12:26.198Z,22.27
2018-06-04T08:14:55.119Z,22.73
2018-06-04T08:17:24.028Z,21.65
2018-06-04T08:19:52.923Z,28.17
2018-06-04T08:22:21.807Z,22.65
2018-06-04T08:24:50.661Z,24.82
2018-06-04T08:27:19.495Z,22.22
2018-06-04T08:29:48.444Z,20.88
2018-06-04T08:32:17.255Z,22.67
2018-06-04T08:34:46.227Z,21.50
2018-06-04T08:37:15.042Z,20.57
2018-06-04T08:39:43.896Z,22.00
2018-06-04T08:42:12.822Z,22.95
2018-06-04T08:44:41.687Z,24.45
2018-06-04T08:47:10.504Z,25.10
2018-06-04T08:49:39.392Z,22.55
2018-06-04T08:52:08.297Z,24.82
2018-06-04T08:54:37.140Z,19.27
2018-06-04T08:57:06.087Z,22.17
2018-06-04T08:59:34.904Z,23.87
2018-06-04T09:02:03.768Z,22.35
2018-06-04T09:04:32.654Z,21.60
2018-06-04T09:07:01.554Z,20.32
2018-06-04T09:09:30.432Z,19.92
2018-06-04T09:11:59.368Z,23.07
2018-06-04T09:14:28.217Z,22.07
2018-06-04T09:16:57.109Z,23.30
2018-06-04T09:19:27.602Z,23.45
2018-06-04T09:21:56.525Z,22.90
2018-06-04T09:24:25.567Z,22.27
2018-06-04T09:26:54.775Z,21.42
2018-06-04T09:29:23.625Z,22.95
2018-06-04T09:31:52.545Z,23.62
2018-06-04T09:34:21.488Z,23.40
2018-06-04T09:36:50.698Z,21.75
2018-06-04T09:39:19.566Z,22.62
2018-06-04T09:41:48.443Z,23.02
2018-06-04T09:44:17.320Z,23.85
2018-06-04T09:46:45.765Z,22.93
2018-06-04T09:49:14.703Z,22.27
2018-06-04T09:51:43.564Z,22.77
2018-06-04T09:54:12.579Z,21.82
2018-06-04T09:56:41.510Z,23.20
2018-06-04T09:59:10.402Z,21.05
2018-06-04T10:01:39.648Z,22.10
2018-06-04T10:04:08.568Z,20.37
2018-06-04T10:06:37.481Z,21.75
2018-06-04T10:09:08.331Z,22.15
2018-06-04T10:11:37.215Z,19.87
2018-06-04T10:14:06.388Z,21.52
2018-06-04T10:16:35.291Z,21.00
2018-06-04T10:19:04.212Z,20.08
2018-06-04T10:21:33.186Z,19.85
2018-06-04T10:24:02.080Z,22.07
2018-06-04T10:26:31.024Z,21.40
2018-06-04T10:28:59.876Z,21.55
2018-06-04T10:31:31.575Z,18.15
2018-06-04T10:34:00.536Z,18.92
2018-06-04T10:36:29.509Z,19.32
2018-06-04T10:38:58.662Z,18.55
2018-06-04T10:41:27.496Z,20.77
2018-06-04T10:43:56.383Z,19.23
2018-06-04T10:46:25.258Z,16.57
2018-06-04T10:48:54.203Z,18.90
2018-06-04T10:51:23.049Z,18.65
2018-06-04T10:53:52.035Z,17.02
2018-06-04T10:56:20.969Z,17.07
2018-06-04T10:58:49.834Z,17.23
2018-06-04T11:01:18.818Z,17.35
2018-06-04T11:03:47.669Z,20.10
2018-06-04T11:06:16.561Z,18.60
2018-06-04T11:08:45.673Z,16.65
2018-06-04T11:11:14.552Z,15.98
2018-06-04T11:13:43.473Z,18.67
2018-06-04T11:16:12.429Z,17.67
2018-06-04T11:18:41.455Z,16.75
2018-06-04T11:21:10.326Z,16.97
2018-06-04T11:23:39.186Z,17.37
2018-06-04T11:26:08.312Z,14.98
2018-06-04T11:28:37.212Z,17.65
2018-06-04T11:31:06.138Z,15.08
2018-06-04T11:33:35.032Z,15.23
2018-06-04T11:36:03.901Z,14.07
2018-06-04T11:38:32.779Z,14.45
2018-06-04T11:41:01.701Z,14.38
2018-06-04T11:43:30.602Z,15.55
2018-06-04T11:45:59.497Z,17.73
2018-06-04T11:48:28.361Z,15.58
2018-06-04T11:50:57.285Z,15.63
2018-06-04T11:53:26.153Z,14.70
2018-06-04T11:55:55.025Z,15.03
2018-06-04T11:58:24.126Z,12.93
2018-06-04T12:00:53.051Z,13.98
2018-06-04T12:03:21.921Z,15.63
2018-06-04T12:05:50.782Z,15.80
2018-06-04T12:08:19.935Z,19.15
2018-06-04T12:10:48.751Z,15.85
2018-06-04T12:13:17.805Z,15.72
2018-06-04T12:15:46.630Z,15.43
2018-06-04T12:18:15.495Z,17.10
2018-06-04T12:20:44.375Z,17.50
2018-06-04T12:23:13.220Z,16.80
2018-06-04T12:25:42.060Z,15.63
2018-06-04T12:28:10.914Z,17.27
2018-06-04T12:30:39.969Z,16.87
2018-06-04T12:33:08.796Z,15.93
2018-06-04T12:35:37.655Z,16.67
2018-06-04T12:38:06.527Z,16.00
2018-06-04T12:40:35.364Z,18.37
2018-06-04T12:43:04.244Z,18.42
2018-06-04T12:45:33.064Z,17.02
2018-06-04T12:48:01.911Z,17.35
2018-06-04T12:50:30.963Z,17.57
2018-06-04T12:52:59.847Z,19.23
2018-06-04T12:55:28.751Z,17.70
2018-06-04T12:57:57.637Z,18.52
2018-06-04T13:00:26.479Z,15.95
2018-06-04T13:02:55.336Z,12.73
2018-06-04T13:05:24.185Z,12.30
2018-06-04T13:07:53.029Z,13.20
2018-06-04T13:10:22.161Z,12.18
2018-06-04T13:12:51.143Z,10.10
2018-06-04T13:15:19.986Z,13.28
2018-06-04T13:17:48.864Z,13.88
2018-06-04T13:20:17.689Z,11.75
2018-06-04T13:22:46.587Z,12.15
2018-06-04T13:25:15.258Z,10.70
2018-06-04T13:27:44.127Z,11.03
2018-06-04T13:30:13.119Z,12.25
2018-06-04T13:32:41.943Z,11.97
2018-06-04T13:35:10.471Z,10.73
2018-06-04T13:37:39.337Z,11.00
2018-06-04T13:40:08.184Z,9.95
2018-06-04T13:42:36.726Z,10.93
2018-06-04T13:45:05.917Z,10.25
2018-06-04T13:47:34.667Z,11.30
2018-06-04T13:50:03.618Z,10.83
2018-06-04T13:52:32.517Z,11.40
2018-06-04T13:55:01.347Z,11.35
2018-06-04T13:57:29.895Z,13.03
2018-06-04T13:59:58.442Z,10.43
2018-06-04T14:02:27.325Z,12.03
2018-06-04T14:04:57.536Z,11.33
2018-06-04T14:07:26.156Z,10.10
2018-06-04T14:09:54.885Z,11.23
2018-06-04T14:12:23.725Z,11.53
2018-06-04T14:14:52.618Z,11.97
2018-06-04T14:17:21.473Z,13.08
2018-06-04T14:19:50.369Z,10.48
2018-06-04T14:22:18.926Z,10.50
2018-06-04T14:24:47.458Z,9.80
2018-06-04T14:27:16.522Z,10.00
2018-06-04T14:29:45.330Z,12.43
2018-06-04T14:32:13.951Z,9.77
2018-06-04T14:34:42.762Z,10.33
2018-06-04T14:37:11.313Z,10.53
2018-06-04T14:39:39.775Z,11.90
2018-06-04T14:42:08.139Z,11.20
2018-06-04T14:44:36.824Z,11.93
2018-06-04T14:47:05.454Z,10.07
2018-06-04T14:49:34.054Z,11.20
2018-06-04T14:52:02.779Z,11.80
2018-06-04T14:54:31.347Z,10.83
2018-06-04T14:56:59.914Z,12.03
2018-06-04T14:59:28.863Z,11.33
2018-06-04T15:01:57.430Z,13.50
2018-06-04T15:04:26.070Z,11.93
2018-06-04T15:06:55.056Z,10.30
2018-06-04T15:09:23.638Z,10.50
2018-06-04T15:11:52.184Z,10.70
2018-06-04T15:14:21.278Z,11.13
2018-06-04T15:16:49.855Z,11.40
2018-06-04T15:19:18.313Z,12.23
2018-06-04T15:21:46.863Z,11.63
2018-06-04T15:24:15.416Z,11.70
2018-06-04T15:26:44.027Z,11.67
2018-06-04T15:29:12.574Z,13.10
2018-06-04T15:31:41.442Z,11.53
2018-06-04T15:34:10.598Z,12.65
2018-06-04T15:36:39.465Z,12.60
2018-06-04T15:39:08.841Z,11.45
2018-06-04T15:41:37.748Z,11.27
2018-06-04T15:44:06.334Z,12.50
2018-06-04T15:46:35.175Z,11.55
2018-06-04T15:49:03.714Z,10.50
2018-06-04T15:51:32.318Z,11.87
2018-06-04T15:54:00.924Z,11.20
2018-06-04T15:56:29.773Z,11.75
2018-06-04T15:58:58.309Z,10.33
2018-06-04T16:01:26.573Z,11.07
2018-06-04T16:03:55.357Z,10.97
2018-06-04T16:06:23.874Z,13.40
2018-06-04T16:08:52.442Z,11.90
2018-06-04T16:11:20.971Z,10.50
2018-06-04T16:13:49.725Z,11.63
2018-06-04T16:16:18.611Z,12.47
2018-06-04T16:18:47.461Z,11.73
2018-06-04T16:21:16.023Z,10.43
2018-06-04T16:23:44.613Z,10.93
2018-06-04T16:26:13.453Z,11.53
2018-06-04T16:28:42.278Z,10.70
2018-06-04T16:31:11.119Z,10.75
2018-06-04T16:33:39.927Z,10.93
2018-06-04T16:36:08.826Z,9.80
2018-06-04T16:38:37.672Z,9.55
2018-06-04T16:41:06.510Z,8.08
2018-06-04T16:43:35.537Z,9.75
2018-06-04T16:46:04.464Z,9.88
2018-06-04T16:48:33.386Z,7.47
2018-06-04T16:51:02.238Z,7.65
2018-06-04T16:53:31.103Z,7.62
2018-06-04T16:55:59.941Z,7.97
2018-06-04T16:58:28.804Z,7.83
2018-06-04T17:00:57.674Z,6.55
2018-06-04T17:03:26.474Z,8.43
2018-06-04T17:05:55.386Z,8.95
2018-06-04T17:08:24.202Z,6.78
2018-06-04T17:10:54.159Z,7.17
2018-06-04T17:13:23.052Z,6.70
2018-06-04T17:15:51.921Z,7.87
2018-06-04T17:18:20.759Z,7.97
2018-06-04T17:20:49.655Z,7.35
2018-06-04T17:23:18.504Z,8.30
2018-06-04T17:25:47.407Z,8.75
2018-06-04T17:28:16.319Z,8.63
2018-06-04T17:30:45.230Z,8.48
2018-06-04T17:33:14.100Z,9.13
2018-06-04T17:35:42.353Z,9.30
2018-06-04T17:38:11.205Z,8.50
2018-06-04T17:40:40.024Z,8.65
2018-06-04T17:43:08.904Z,7.85
2018-06-04T17:45:37.761Z,7.42
2018-06-04T17:48:06.632Z,7.40
2018-06-04T17:50:34.986Z,6.93
2018-06-04T17:53:03.854Z,7.17
2018-06-04T17:55:32.704Z,7.90
2018-06-04T17:58:01.582Z,8.13
2018-06-04T18:00:30.418Z,7.87
2018-06-04T18:02:59.392Z,7.87
2018-06-04T18:05:28.429Z,7.83
2018-06-04T18:07:57.285Z,8.95
2018-06-04T18:10:26.391Z,8.38
2018-06-04T18:12:55.003Z,7.22
2018-06-04T18:15:23.904Z,6.60
2018-06-04T18:17:52.980Z,6.95
2018-06-04T18:20:21.850Z,6.70
2018-06-04T18:22:50.747Z,8.40
2018-06-04T18:25:20.239Z,7.17
2018-06-04T18:27:49.141Z,7.25
2018-06-04T18:30:18.051Z,7.83
2018-06-04T18:32:46.905Z,7.35
2018-06-04T18:35:15.908Z,8.80
2018-06-04T18:37:44.750Z,7.42
2018-06-04T18:40:13.623Z,7.85
2018-06-04T18:42:42.516Z,7.67
2018-06-04T18:45:11.437Z,7.62
2018-06-04T18:47:40.348Z,7.20
2018-06-04T18:50:09.246Z,8.08
2018-06-04T18:52:38.119Z,8.20
2018-06-04T18:55:07.097Z,8.50
2018-06-04T18:57:35.910Z,8.60
2018-06-04T19:00:05.678Z,10.40
2018-06-04T19:02:34.632Z,12.28
2018-06-04T19:05:03.559Z,12.68
2018-06-04T19:07:32.480Z,13.48
2018-06-04T19:10:01.347Z,12.98
2018-06-04T19:12:30.648Z,12.40
2018-06-04T19:14:59.609Z,12.60
2018-06-04T19:17:28.652Z,12.88
2018-06-04T19:19:57.533Z,13.50
2018-06-04T19:22:25.882Z,11.15
2018-06-04T19:24:54.289Z,13.07
2018-06-04T19:27:23.208Z,12.88
2018-06-04T19:29:51.864Z,12.30
2018-06-04T19:32:20.237Z,15.73
2018-06-04T19:34:48.552Z,16.73
2018-06-04T19:37:16.572Z,18.27
2018-06-04T19:39:44.988Z,19.53
2018-06-04T19:42:13.352Z,17.83
2018-06-04T19:44:41.730Z,20.10
2018-06-04T19:47:10.039Z,18.63
2018-06-04T19:49:38.398Z,18.77
2018-06-04T19:52:06.808Z,17.13
2018-06-04T19:54:35.621Z,18.73
2018-06-04T19:57:04.889Z,18.67
2018-06-04T19:59:33.213Z,19.57
2018-06-04T20:02:01.535Z,21.27
2018-06-04T20:04:29.797Z,17.80
2018-06-04T20:06:58.264Z,20.43
2018-06-04T20:09:26.571Z,21.67
2018-06-04T20:11:57.854Z,20.63
2018-06-04T20:14:26.345Z,18.93
2018-06-04T20:16:54.684Z,20.33
2018-06-04T20:19:23.003Z,19.03
2018-06-04T20:21:51.282Z,18.40
2018-06-04T20:24:19.592Z,17.27
2018-06-04T20:26:47.897Z,19.37
2018-06-04T20:29:16.137Z,22.00
2018-06-04T20:31:44.439Z,21.17
2018-06-04T20:34:12.754Z,20.43
2018-06-04T20:36:41.042Z,22.17
2018-06-04T20:39:09.603Z,22.77
2018-06-04T20:41:37.892Z,20.97
2018-06-04T20:44:05.940Z,23.27
2018-06-04T20:46:34.463Z,22.57
2018-06-04T20:49:02.767Z,23.60
2018-06-04T20:51:31.054Z,24.87
2018-06-04T20:53:59.347Z,26.07
2018-06-04T20:56:27.999Z,25.90
2018-06-04T20:58:56.390Z,27.60
2018-06-04T21:01:24.696Z,30.67
2018-06-04T21:03:53.955Z,26.23
2018-06-04T21:06:22.266Z,29.83
2018-06-04T21:08:50.548Z,26.30
2018-06-04T21:11:18.873Z,28.03
2018-06-04T21:13:46.985Z,28.57
2018-06-04T21:16:15.276Z,29.33
2018-06-04T21:18:43.573Z,27.10
2018-06-04T21:21:11.906Z,25.67
2018-06-04T21:23:40.275Z,25.20
2018-06-04T21:26:08.474Z,25.90
2018-06-04T21:28:36.871Z,25.43
2018-06-04T21:31:05.178Z,23.73
2018-06-04T21:33:34.505Z,23.43
2018-06-04T21:36:02.846Z,20.77
2018-06-04T21:38:31.238Z,22.80
2018-06-04T21:41:00.046Z,20.00
2018-06-04T21:43:28.634Z,21.40
2018-06-04T21:45:56.917Z,20.40
2018-06-04T21:48:25.225Z,19.63
2018-06-04T21:50:53.616Z,21.23
2018-06-04T21:53:21.932Z,17.60
2018-06-04T21:55:50.232Z,19.27
2018-06-04T21:58:18.641Z,17.40
2018-06-04T22:00:47.085Z,22.60
2018-06-04T22:03:15.379Z,19.53
2018-06-04T22:05:44.734Z,17.73
2018-06-04T22:08:14.130Z,18.63
2018-06-04T22:10:42.478Z,19.10
2018-06-04T22:13:11.351Z,19.10
2018-06-04T22:15:39.663Z,21.43
2018-06-04T22:18:08.079Z,20.90
2018-06-04T22:20:36.364Z,21.47
2018-06-04T22:23:04.700Z,21.57
2018-06-04T22:25:32.998Z,22.10
2018-06-04T22:28:01.367Z,20.53
2018-06-04T22:30:29.687Z,21.03
2018-06-04T22:32:57.971Z,17.67
2018-06-04T22:35:26.287Z,18.63
2018-06-04T22:37:54.594Z,19.50
2018-06-04T22:40:23.062Z,19.50
2018-06-04T22:42:51.383Z,17.20
2018-06-04T22:45:19.676Z,17.77
2018-06-04T22:47:48.022Z,18.03
2018-06-04T22:50:16.350Z,17.30
2018-06-04T22:52:44.651Z,17.93
2018-06-04T22:55:12.991Z,18.43
2018-06-04T22:57:41.357Z,17.40
2018-06-04T23:00:09.953Z,18.17
2018-06-04T23:02:38.232Z,15.33
2018-06-04T23:05:06.544Z,15.07
2018-06-04T23:07:34.877Z,15.83
2018-06-04T23:10:03.214Z,19.37
2018-06-04T23:12:31.527Z,17.60
2018-06-04T23:14:59.850Z,17.03
2018-06-04T23:17:28.161Z,15.57
2018-06-04T23:19:56.459Z,16.43
2018-06-04T23:22:24.885Z,14.20
2018-06-04T23:24:53.181Z,17.07
2018-06-04T23:27:21.501Z,12.97
2018-06-04T23:29:49.800Z,15.03
2018-06-04T23:32:18.099Z,11.27
2018-06-04T23:34:46.392Z,12.87
2018-06-04T23:37:14.684Z,11.90
2018-06-04T23:39:42.766Z,12.67
2018-06-04T23:42:11.041Z,11.93
2018-06-04T23:44:39.482Z,11.33
2018-06-04T23:47:07.832Z,12.77
2018-06-04T23:49:36.140Z,13.70
2018-06-04T23:52:04.424Z,12.97
2018-06-04T23:54:32.691Z,12.90
2018-06-04T23:57:00.954Z,15.03
2018-06-04T23:59:29.292Z,14.13
